Time;durP1;ratioP1;P1;durP2;ratioP2;P2;SDS_P1;SDS_P2;PMS_P1;PMS_P2;Temp;Humidity;BMP_temperature;BMP_pressure;BME280_temperature;BME280_humidity;BME280_pressure;Samples;Min_cycle;Max_cycle;Signal;HPM_P1;HPM_P2
2022/08/12 00:45:04;;;;;;;7.05;4.75;;;;;;;;;;5049752;28;20041;-73
2022/08/12 00:48:08;;;;;;;5.72;4.95;;;;;;;;;;5050707;28;20041;-73
2022/08/12 00:51:13;;;;;;;6.30;5.00;;;;;;;;;;5050808;28;20508;-73
2022/08/12 00:54:17;;;;;;;7.72;5.13;;;;;;;;;;5051086;28;20045;-73
2022/08/12 00:57:29;;;;;;;8.88;4.50;;;;;;;;;;5056811;28;20037;-74
2022/08/12 01:00:34;;;;;;;7.18;5.18;;;;;;;;;;5057411;28;20041;-74
2022/08/12 01:13:52;;;;;;;6.97;5.50;;;;;;;;;;5056935;28;20036;-73
2022/08/12 01:16:57;;;;;;;8.52;4.97;;;;;;;;;;5057044;28;20045;-74
2022/08/12 01:20:05;;;;;;;10.10;5.63;;;;;;;;;;5057273;28;20041;-73
2022/08/12 01:23:27;;;;;;;7.32;5.50;;;;;;;;;;5057021;28;20283;-73
2022/08/12 01:26:33;;;;;;;9.38;5.43;;;;;;;;;;5057113;28;20041;-73
2022/08/12 01:29:42;;;;;;;9.75;5.65;;;;;;;;;;5056924;28;20225;-74
2022/08/12 01:32:48;;;;;;;7.72;5.50;;;;;;;;;;5033467;28;20033;-74
2022/08/12 01:35:59;;;;;;;11.65;6.00;;;;;;;;;;5033378;28;20049;-73
2022/08/12 01:39:04;;;;;;;8.57;6.13;;;;;;;;;;5057118;28;20044;-73
2022/08/12 01:42:09;;;;;;;9.73;6.43;;;;;;;;;;5057025;28;20378;-73
2022/08/12 01:45:16;;;;;;;9.98;6.10;;;;;;;;;;5057248;28;20480;-73
2022/08/12 01:48:24;;;;;;;6.22;5.40;;;;;;;;;;5056094;28;20045;-74
2022/08/12 01:51:41;;;;;;;6.93;6.18;;;;;;;;;;5057327;28;20032;-73
2022/08/12 01:54:48;;;;;;;8.85;6.20;;;;;;;;;;5056813;28;20032;-73
2022/08/12 01:58:06;;;;;;;10.55;6.38;;;;;;;;;;5056917;28;20037;-73
2022/08/12 02:01:11;;;;;;;8.13;6.25;;;;;;;;;;5057026;28;20036;-73
2022/08/12 02:11:21;;;;;;;7.50;5.72;;;;;;;;;;5053018;28;20032;-73
2022/08/12 02:14:32;;;;;;;13.00;5.07;;;;;;;;;;5053568;28;20041;-73
2022/08/12 02:17:48;;;;;;;7.82;5.28;;;;;;;;;;5052981;28;20068;-74
2022/08/12 02:20:57;;;;;;;9.77;6.00;;;;;;;;;;5053691;28;20468;-73
2022/08/12 02:24:03;;;;;;;7.28;5.07;;;;;;;;;;5053612;28;20040;-73
2022/08/12 02:27:09;;;;;;;7.50;4.95;;;;;;;;;;5052484;28;20045;-73
2022/08/12 02:30:18;;;;;;;9.18;5.95;;;;;;;;;;5052463;28;20033;-73
2022/08/12 02:33:24;;;;;;;9.60;5.55;;;;;;;;;;5053411;28;20386;-73
2022/08/12 02:36:29;;;;;;;8.25;5.60;;;;;;;;;;5053260;28;20402;-73
2022/08/12 02:39:35;;;;;;;8.82;5.90;;;;;;;;;;5052391;28;20029;-73
2022/08/12 02:42:45;;;;;;;8.82;5.43;;;;;;;;;;5053084;28;20045;-73
2022/08/12 02:45:56;;;;;;;8.82;4.68;;;;;;;;;;5053271;28;20037;-73
2022/08/12 02:49:00;;;;;;;8.57;4.82;;;;;;;;;;5052073;28;20037;-73
2022/08/12 02:52:06;;;;;;;6.85;5.07;;;;;;;;;;5052060;28;20028;-73
2022/08/12 02:55:20;;;;;;;7.60;4.38;;;;;;;;;;5052449;28;20488;-73
2022/08/12 02:58:25;;;;;;;8.75;5.20;;;;;;;;;;5052017;28;20037;-73
2022/08/12 03:01:33;;;;;;;8.15;5.10;;;;;;;;;;5051907;28;20064;-73
2022/08/12 03:04:43;;;;;;;8.52;5.68;;;;;;;;;;5052695;28;20037;-73
2022/08/12 03:07:49;;;;;;;9.93;6.03;;;;;;;;;;5052541;28;20045;-73
2022/08/12 03:10:55;;;;;;;7.88;6.30;;;;;;;;;;5052344;28;20040;-73
2022/08/12 03:14:00;;;;;;;10.80;6.03;;;;;;;;;;5052484;28;20041;-73
2022/08/12 03:17:13;;;;;;;8.85;6.25;;;;;;;;;;5052512;28;20106;-73
2022/08/12 03:20:22;;;;;;;13.63;6.90;;;;;;;;;;5051279;28;20029;-73
2022/08/12 03:23:28;;;;;;;11.82;6.47;;;;;;;;;;5052170;28;20065;-73
2022/08/12 03:26:34;;;;;;;12.88;6.85;;;;;;;;;;5052316;28;20044;-73
2022/08/12 03:29:40;;;;;;;8.60;6.40;;;;;;;;;;5051569;28;20048;-73
2022/08/12 03:32:48;;;;;;;9.27;6.82;;;;;;;;;;5050953;28;20036;-73
2022/08/12 03:35:54;;;;;;;11.18;7.40;;;;;;;;;;5052127;28;20045;-73
2022/08/12 03:42:22;;;;;;;11.63;7.10;;;;;;;;;;5051864;28;20068;-73
2022/08/12 04:02:24;;;;;;;10.50;6.68;;;;;;;;;;5051268;28;20400;-73
2022/08/12 04:05:29;;;;;;;11.38;8.15;;;;;;;;;;5051536;28;20119;-73
2022/08/12 04:08:34;;;;;;;11.30;7.28;;;;;;;;;;5050559;28;20048;-73
2022/08/12 04:15:03;;;;;;;10.95;6.90;;;;;;;;;;5051182;28;20045;-73
2022/08/12 04:18:07;;;;;;;10.43;6.80;;;;;;;;;;5051174;28;20044;-73
2022/08/12 04:21:12;;;;;;;9.60;6.18;;;;;;;;;;5051271;28;20046;-73
2022/08/12 04:24:19;;;;;;;13.60;7.25;;;;;;;;;;5051100;28;20037;-73
2022/08/12 04:27:24;;;;;;;10.90;7.28;;;;;;;;;;5051207;28;20044;-73
2022/08/12 04:30:29;;;;;;;11.45;6.35;;;;;;;;;;5049918;28;20047;-70
2022/08/12 04:33:34;;;;;;;14.27;7.18;;;;;;;;;;5050215;28;20047;-73
2022/08/12 04:36:39;;;;;;;11.05;7.07;;;;;;;;;;5050853;28;20055;-73
2022/08/12 04:39:44;;;;;;;10.60;6.72;;;;;;;;;;5050680;28;20044;-73
2022/08/12 04:42:50;;;;;;;9.35;6.63;;;;;;;;;;5051015;28;20408;-73
2022/08/12 04:45:54;;;;;;;9.38;6.45;;;;;;;;;;5050111;28;20033;-73
2022/08/12 04:49:01;;;;;;;14.77;7.47;;;;;;;;;;5050571;28;20488;-73
2022/08/12 04:52:06;;;;;;;15.05;7.07;;;;;;;;;;5050138;28;20392;-73
2022/08/12 04:55:15;;;;;;;16.00;8.30;;;;;;;;;;5049929;28;20427;-73
2022/08/12 04:58:20;;;;;;;11.55;8.38;;;;;;;;;;5051024;28;20061;-73
2022/08/12 05:01:31;;;;;;;14.23;9.05;;;;;;;;;;5049832;28;20043;-73
2022/08/12 05:04:37;;;;;;;15.70;9.95;;;;;;;;;;5050543;28;20207;-71
2022/08/12 05:07:41;;;;;;;27.23;15.07;;;;;;;;;;5049905;28;20048;-71
2022/08/12 05:10:47;;;;;;;25.92;15.38;;;;;;;;;;5050708;28;20043;-71
2022/08/12 05:13:59;;;;;;;18.88;12.00;;;;;;;;;;5050570;28;20048;-73
2022/08/12 05:17:03;;;;;;;11.40;7.45;;;;;;;;;;5050342;28;20055;-73
2022/08/12 05:20:09;;;;;;;16.38;8.57;;;;;;;;;;5050843;28;20044;-73
2022/08/12 05:23:16;;;;;;;13.23;7.53;;;;;;;;;;5049696;28;20044;-73
2022/08/12 05:26:21;;;;;;;11.20;6.97;;;;;;;;;;5050844;28;20044;-73
2022/08/12 05:29:28;;;;;;;9.57;5.97;;;;;;;;;;5050222;28;20047;-71
2022/08/12 05:32:32;;;;;;;10.68;6.05;;;;;;;;;;5050231;28;20033;-71
2022/08/12 05:35:41;;;;;;;9.00;5.38;;;;;;;;;;5049372;28;20052;-73
2022/08/12 05:38:55;;;;;;;8.70;5.85;;;;;;;;;;5050162;28;20036;-73
2022/08/12 05:41:59;;;;;;;9.05;6.10;;;;;;;;;;5050754;28;20053;-73
2022/08/12 05:45:04;;;;;;;6.80;5.53;;;;;;;;;;5054376;28;20037;-73
2022/08/12 05:48:09;;;;;;;12.73;5.65;;;;;;;;;;5054201;28;20382;-73
2022/08/12 05:51:13;;;;;;;11.52;5.75;;;;;;;;;;5053523;28;20059;-73
2022/08/12 05:54:18;;;;;;;11.70;5.97;;;;;;;;;;5052902;28;20048;-72
2022/08/12 05:57:22;;;;;;;9.90;6.15;;;;;;;;;;5053844;28;20056;-74
2022/08/12 06:00:28;;;;;;;9.90;6.47;;;;;;;;;;5053621;28;20029;-65
2022/08/12 06:03:32;;;;;;;13.02;6.68;;;;;;;;;;5053690;28;20040;-64
2022/08/12 06:06:40;;;;;;;10.38;5.75;;;;;;;;;;5053415;28;20496;-64
2022/08/12 06:09:44;;;;;;;13.85;7.78;;;;;;;;;;5053406;28;20044;-64
2022/08/12 06:12:49;;;;;;;21.70;8.45;;;;;;;;;;5051644;28;20311;-64
2022/08/12 06:15:53;;;;;;;17.02;7.30;;;;;;;;;;5051502;28;20056;-64
2022/08/12 06:18:58;;;;;;;11.75;7.18;;;;;;;;;;5051142;28;20048;-64
2022/08/12 06:22:02;;;;;;;14.20;7.20;;;;;;;;;;5051161;28;20041;-64
2022/08/12 06:25:07;;;;;;;22.70;7.25;;;;;;;;;;5051294;28;20396;-64
2022/08/12 06:28:18;;;;;;;15.50;7.05;;;;;;;;;;5051311;28;20044;-65
2022/08/12 06:31:23;;;;;;;12.52;7.25;;;;;;;;;;5051909;28;20048;-64
2022/08/12 06:34:30;;;;;;;16.38;6.82;;;;;;;;;;5051832;28;20503;-65
2022/08/12 06:37:38;;;;;;;15.93;8.23;;;;;;;;;;5052362;28;20044;-65
2022/08/12 06:44:19;;;;;;;12.75;6.70;;;;;;;;;;5052765;28;20039;-65
2022/08/12 06:47:23;;;;;;;11.95;7.20;;;;;;;;;;5053020;28;20048;-65
2022/08/12 06:50:29;;;;;;;11.80;6.28;;;;;;;;;;5052988;28;20515;-64
2022/08/12 06:53:34;;;;;;;10.77;6.38;;;;;;;;;;5051319;28;20040;-64
2022/08/12 06:56:38;;;;;;;10.40;6.22;;;;;;;;;;5052736;28;20112;-64
2022/08/12 06:59:42;;;;;;;17.40;6.60;;;;;;;;;;5052748;28;20130;-64
2022/08/12 07:02:46;;;;;;;16.17;7.20;;;;;;;;;;5052333;28;20499;-64
2022/08/12 07:05:51;;;;;;;12.80;6.90;;;;;;;;;;5052407;28;20616;-64
2022/08/12 07:08:55;;;;;;;13.68;6.82;;;;;;;;;;5052531;28;20061;-64
2022/08/12 07:12:00;;;;;;;20.42;7.82;;;;;;;;;;5052561;28;20043;-64
2022/08/12 07:15:04;;;;;;;14.00;7.18;;;;;;;;;;5052318;28;20124;-64
2022/08/12 07:18:10;;;;;;;13.23;7.47;;;;;;;;;;5052393;28;20392;-64
2022/08/12 07:21:14;;;;;;;17.67;7.72;;;;;;;;;;5051993;28;20036;-64
2022/08/12 07:24:19;;;;;;;12.52;7.35;;;;;;;;;;5052215;28;20048;-64
2022/08/12 07:27:24;;;;;;;16.02;7.85;;;;;;;;;;5052330;28;20047;-64
2022/08/12 07:30:30;;;;;;;13.77;7.65;;;;;;;;;;5051987;28;20048;-66
2022/08/12 07:33:37;;;;;;;10.13;6.85;;;;;;;;;;5051591;28;20048;-66
2022/08/12 07:36:41;;;;;;;15.93;7.45;;;;;;;;;;5051824;28;20093;-64
2022/08/12 07:39:46;;;;;;;14.57;8.73;;;;;;;;;;5051690;28;20388;-64
2022/08/12 07:42:51;;;;;;;9.77;6.30;;;;;;;;;;5051482;28;20052;-64
2022/08/12 07:45:56;;;;;;;12.55;6.30;;;;;;;;;;5051933;28;20033;-64
2022/08/12 07:49:01;;;;;;;12.68;7.80;;;;;;;;;;5051689;28;20039;-64
2022/08/12 07:52:05;;;;;;;14.40;7.72;;;;;;;;;;5051531;28;20521;-64
2022/08/12 07:55:10;;;;;;;16.10;7.97;;;;;;;;;;5050275;28;20052;-65
2022/08/12 07:58:15;;;;;;;11.75;8.20;;;;;;;;;;5051383;28;20040;-64
2022/08/12 08:01:20;;;;;;;15.63;7.07;;;;;;;;;;5051101;28;20048;-65
2022/08/12 08:07:47;;;;;;;91.25;15.30;;;;;;;;;;5050109;28;20033;-65
2022/08/12 08:12:52;;;;;;;151.98;16.92;;;;;;;;;;5051077;28;20052;-65
2022/08/12 08:14:18;;;;;;;9.45;5.20;;;;;;;;;;5051078;28;20055;-65
2022/08/12 08:17:22;;;;;;;5.75;5.13;;;;;;;;;;5050846;28;20075;-67
2022/08/12 08:20:27;;;;;;;12.32;5.25;;;;;;;;;;5051123;28;20037;-66
2022/08/12 08:26:57;;;;;;;8.38;4.85;;;;;;;;;;5051237;28;20047;-67
2022/08/12 08:30:01;;;;;;;6.57;4.70;;;;;;;;;;5051323;28;20036;-66
2022/08/12 08:33:08;;;;;;;7.60;4.93;;;;;;;;;;5051077;28;20045;-67
2022/08/12 08:36:12;;;;;;;10.93;5.32;;;;;;;;;;5050758;28;20053;-67
2022/08/12 08:39:16;;;;;;;8.10;4.88;;;;;;;;;;5051040;28;20044;-67
2022/08/12 08:42:38;;;;;;;8.55;4.78;;;;;;;;;;5050611;28;20052;-67
2022/08/12 08:45:47;;;;;;;7.68;5.07;;;;;;;;;;5050305;28;20041;-66
2022/08/12 08:48:51;;;;;;;7.95;4.70;;;;;;;;;;5050504;28;20029;-67
2022/08/12 08:51:56;;;;;;;10.48;5.50;;;;;;;;;;5050479;28;20036;-67
2022/08/12 08:55:00;;;;;;;10.75;4.97;;;;;;;;;;5050326;28;20499;-67
2022/08/12 08:58:05;;;;;;;8.10;5.88;;;;;;;;;;5050794;28;20056;-67
2022/08/12 09:01:10;;;;;;;49.00;7.93;;;;;;;;;;5050787;28;20028;-66
2022/08/12 09:04:14;;;;;;;50.08;9.07;;;;;;;;;;5050429;28;20044;-67
2022/08/12 09:07:19;;;;;;;10.85;5.32;;;;;;;;;;5050294;28;20044;-67
2022/08/12 09:10:24;;;;;;;9.93;5.75;;;;;;;;;;5050728;28;20044;-67
2022/08/12 09:13:31;;;;;;;7.60;5.65;;;;;;;;;;5050471;28;20041;-66
2022/08/12 09:16:39;;;;;;;11.90;6.07;;;;;;;;;;5052076;28;20049;-66
2022/08/12 09:19:44;;;;;;;13.25;6.38;;;;;;;;;;5054850;28;20055;-66
2022/08/12 09:22:48;;;;;;;21.77;6.63;;;;;;;;;;5054244;28;20052;-66
2022/08/12 09:25:53;;;;;;;10.27;5.97;;;;;;;;;;5054500;28;20504;-66
2022/08/12 09:28:57;;;;;;;13.05;6.20;;;;;;;;;;5054248;28;20044;-67
2022/08/12 09:32:05;;;;;;;10.93;5.50;;;;;;;;;;5054121;28;20036;-67
2022/08/12 09:35:10;;;;;;;10.50;6.10;;;;;;;;;;5054427;28;20055;-67
2022/08/12 09:38:16;;;;;;;11.05;7.00;;;;;;;;;;5054360;28;20052;-67
2022/08/12 09:41:21;;;;;;;12.63;7.03;;;;;;;;;;5053664;28;20056;-67
2022/08/12 09:47:51;;;;;;;11.85;7.05;;;;;;;;;;5058001;28;20040;-66
2022/08/12 09:50:55;;;;;;;10.80;6.22;;;;;;;;;;5054086;28;20036;-67
2022/08/12 09:54:01;;;;;;;28.35;8.82;;;;;;;;;;5053960;28;20051;-67
2022/08/12 09:57:10;;;;;;;9.95;6.72;;;;;;;;;;5053682;28;20057;-66
2022/08/12 10:00:16;;;;;;;11.38;6.25;;;;;;;;;;5053454;28;20033;-67
2022/08/12 10:03:25;;;;;;;10.95;6.30;;;;;;;;;;5053173;28;20397;-66
2022/08/12 10:06:30;;;;;;;8.35;6.13;;;;;;;;;;5053491;28;20047;-67
2022/08/12 10:09:34;;;;;;;8.75;5.93;;;;;;;;;;5053548;28;20406;-66
2022/08/12 10:16:01;;;;;;;6.90;5.35;;;;;;;;;;5053139;28;20052;-67
2022/08/12 10:19:06;;;;;;;7.78;5.70;;;;;;;;;;5053460;28;20044;-67
2022/08/12 10:22:10;;;;;;;8.13;5.28;;;;;;;;;;5053314;28;20033;-67
2022/08/12 10:32:00;;;;;;;6.82;5.25;;;;;;;;;;5053302;28;20391;-66
2022/08/12 10:35:05;;;;;;;5.28;4.53;;;;;;;;;;5053150;28;20041;-67
2022/08/12 10:38:11;;;;;;;5.47;4.80;;;;;;;;;;5053129;28;20049;-67
2022/08/12 10:44:38;;;;;;;6.28;4.60;;;;;;;;;;5052915;28;20041;-66
2022/08/12 10:47:42;;;;;;;9.18;4.90;;;;;;;;;;5052918;28;20033;-66
2022/08/12 10:50:47;;;;;;;5.88;5.05;;;;;;;;;;5052770;28;20469;-64
2022/08/12 10:53:55;;;;;;;7.13;5.07;;;;;;;;;;5052842;28;20056;-66
2022/08/12 10:57:00;;;;;;;8.13;4.88;;;;;;;;;;5052793;28;20504;-66
2022/08/12 11:00:05;;;;;;;7.10;5.03;;;;;;;;;;5052963;28;20033;-66
2022/08/12 11:03:10;;;;;;;7.03;4.70;;;;;;;;;;5052794;28;20033;-67
2022/08/12 11:06:17;;;;;;;8.73;4.95;;;;;;;;;;5052839;28;20029;-67
2022/08/12 11:09:30;;;;;;;8.50;5.10;;;;;;;;;;5052867;28;20045;-67
2022/08/12 11:12:40;;;;;;;10.27;5.15;;;;;;;;;;5052103;28;20029;-67
2022/08/12 11:15:45;;;;;;;8.93;5.13;;;;;;;;;;5052304;28;20044;-67
2022/08/12 11:18:50;;;;;;;6.88;4.95;;;;;;;;;;5052558;28;20409;-67
2022/08/12 11:21:55;;;;;;;6.13;4.43;;;;;;;;;;5052094;28;20052;-66
2022/08/12 11:24:59;;;;;;;5.70;4.40;;;;;;;;;;5052196;28;20041;-67
2022/08/12 11:28:04;;;;;;;6.53;5.32;;;;;;;;;;5052300;28;20044;-66
2022/08/12 11:31:09;;;;;;;6.78;4.78;;;;;;;;;;5052102;28;20052;-67
2022/08/12 11:34:13;;;;;;;6.40;4.78;;;;;;;;;;5052120;28;20037;-67
2022/08/12 11:37:18;;;;;;;20.23;15.30;;;;;;;;;;5052085;28;20501;-67
2022/08/12 11:40:22;;;;;;;7.22;4.70;;;;;;;;;;5051880;28;20052;-67
2022/08/12 11:43:26;;;;;;;7.22;4.10;;;;;;;;;;5052041;28;20037;-67
2022/08/12 11:46:34;;;;;;;8.68;3.95;;;;;;;;;;5052264;28;20382;-67
2022/08/12 11:49:37;;;;;;;9.90;5.25;;;;;;;;;;5052415;28;20045;-67
2022/08/12 11:52:42;;;;;;;12.05;4.28;;;;;;;;;;5052106;28;20029;-67
2022/08/12 11:55:46;;;;;;;9.27;4.45;;;;;;;;;;5051823;28;20048;-67
2022/08/12 11:58:50;;;;;;;11.27;5.20;;;;;;;;;;5051516;28;20041;-67
2022/08/12 12:01:55;;;;;;;6.07;4.68;;;;;;;;;;5051635;28;20044;-66
2022/08/12 12:04:59;;;;;;;11.52;4.93;;;;;;;;;;5051823;28;20041;-66
2022/08/12 12:08:03;;;;;;;14.93;6.00;;;;;;;;;;5051475;28;20048;-67
2022/08/12 12:11:07;;;;;;;9.93;4.47;;;;;;;;;;5051376;28;20040;-67
2022/08/12 12:17:53;;;;;;;6.20;4.30;;;;;;;;;;5051250;28;20064;-67
2022/08/12 12:21:03;;;;;;;7.97;4.72;;;;;;;;;;5051537;28;20378;-67
2022/08/12 12:24:07;;;;;;;10.95;4.63;;;;;;;;;;5050896;28;20378;-66
2022/08/12 12:27:12;;;;;;;6.47;4.07;;;;;;;;;;5051283;28;20040;-67
2022/08/12 12:30:16;;;;;;;5.45;4.28;;;;;;;;;;5051188;28;20037;-67
2022/08/12 12:33:21;;;;;;;9.07;5.47;;;;;;;;;;5051445;28;20377;-67
2022/08/12 12:36:25;;;;;;;13.18;5.85;;;;;;;;;;5050897;28;20282;-64
2022/08/12 12:39:30;;;;;;;12.63;6.10;;;;;;;;;;5051282;28;20044;-64
2022/08/12 12:42:34;;;;;;;6.68;4.20;;;;;;;;;;5050800;28;20048;-66
2022/08/12 12:45:39;;;;;;;9.25;4.45;;;;;;;;;;5050990;28;20041;-67
2022/08/12 12:48:43;;;;;;;7.13;4.18;;;;;;;;;;5050923;28;20037;-67
2022/08/12 12:51:48;;;;;;;8.00;4.45;;;;;;;;;;5050101;28;20037;-67
2022/08/12 12:54:57;;;;;;;9.65;4.50;;;;;;;;;;5050631;28;20102;-67
2022/08/12 12:58:03;;;;;;;8.93;4.43;;;;;;;;;;5050417;28;20045;-64
2022/08/12 13:01:07;;;;;;;7.90;4.40;;;;;;;;;;5050491;28;20481;-67
2022/08/12 13:04:11;;;;;;;7.97;5.30;;;;;;;;;;5050492;28;20037;-67
2022/08/12 13:07:16;;;;;;;8.98;4.43;;;;;;;;;;5050291;28;20041;-67
2022/08/12 13:10:22;;;;;;;13.43;5.00;;;;;;;;;;5049864;28;20037;-65
2022/08/12 13:13:28;;;;;;;7.82;4.68;;;;;;;;;;5050510;28;20044;-64
2022/08/12 13:16:32;;;;;;;12.75;4.70;;;;;;;;;;5050599;28;20048;-64
2022/08/12 13:19:37;;;;;;;9.30;4.43;;;;;;;;;;5050583;28;20044;-64
2022/08/12 13:22:41;;;;;;;6.43;4.68;;;;;;;;;;5050386;28;20493;-63
2022/08/12 13:25:46;;;;;;;9.32;4.55;;;;;;;;;;5050693;28;20423;-64
2022/08/12 13:28:52;;;;;;;8.88;4.90;;;;;;;;;;5050499;28;20037;-63
2022/08/12 13:31:57;;;;;;;12.15;5.28;;;;;;;;;;5050510;28;20036;-63
2022/08/12 13:35:02;;;;;;;8.85;4.70;;;;;;;;;;5050447;28;20055;-64
2022/08/12 13:38:09;;;;;;;6.90;4.93;;;;;;;;;;5050155;28;20053;-64
2022/08/12 13:41:32;;;;;;;13.50;5.72;;;;;;;;;;5050010;28;20049;-63
2022/08/12 13:44:36;;;;;;;13.00;6.10;;;;;;;;;;5050313;28;20401;-63
2022/08/12 13:47:55;;;;;;;14.23;5.63;;;;;;;;;;5050302;28;20504;-64
2022/08/12 13:50:59;;;;;;;13.73;6.10;;;;;;;;;;5050005;28;20504;-64
2022/08/12 13:54:04;;;;;;;10.07;5.38;;;;;;;;;;5049542;28;20496;-64
2022/08/12 13:57:09;;;;;;;8.52;5.00;;;;;;;;;;5050103;28;20055;-65
2022/08/12 14:00:14;;;;;;;9.43;5.28;;;;;;;;;;5049650;28;20563;-65
2022/08/12 14:03:23;;;;;;;9.43;4.88;;;;;;;;;;5051413;28;20041;-64
2022/08/12 14:06:27;;;;;;;10.00;4.85;;;;;;;;;;5053852;28;20041;-64
2022/08/12 14:10:34;;;;;;;5.93;4.25;;;;;;;;;;5052769;28;20048;-64
2022/08/12 14:12:56;;;;;;;6.38;4.18;;;;;;;;;;5053265;28;20036;-64
2022/08/12 14:16:01;;;;;;;8.57;4.30;;;;;;;;;;5053265;28;20045;-64
2022/08/12 14:19:05;;;;;;;7.75;4.32;;;;;;;;;;5053806;28;20037;-65
2022/08/12 14:22:12;;;;;;;6.22;4.20;;;;;;;;;;5052804;28;20488;-64
2022/08/12 14:25:16;;;;;;;9.07;4.47;;;;;;;;;;5053510;28;20456;-65
2022/08/12 14:28:22;;;;;;;9.43;4.70;;;;;;;;;;5053279;28;20037;-64
2022/08/12 14:31:26;;;;;;;8.90;4.65;;;;;;;;;;5053236;28;20040;-65
2022/08/12 14:34:32;;;;;;;6.88;4.70;;;;;;;;;;5052801;28;20032;-64
2022/08/12 14:37:37;;;;;;;11.93;5.35;;;;;;;;;;5053000;28;20049;-65
2022/08/12 14:40:42;;;;;;;8.48;4.82;;;;;;;;;;5052838;28;20052;-64
2022/08/12 14:43:49;;;;;;;5.90;3.72;;;;;;;;;;5053399;28;20079;-64
2022/08/12 14:46:55;;;;;;;6.93;4.03;;;;;;;;;;5052999;28;20374;-66
2022/08/12 14:50:00;;;;;;;6.40;4.40;;;;;;;;;;5052503;28;20339;-65
2022/08/12 14:53:09;;;;;;;8.98;4.15;;;;;;;;;;5052808;28;20441;-65
2022/08/12 14:56:14;;;;;;;9.00;3.70;;;;;;;;;;5052376;28;20488;-65
2022/08/12 15:02:43;;;;;;;5.03;3.53;;;;;;;;;;5052460;28;20033;-65
2022/08/12 15:05:48;;;;;;;7.75;4.03;;;;;;;;;;5052458;28;20041;-65
2022/08/12 15:08:53;;;;;;;6.85;3.50;;;;;;;;;;5052505;28;20045;-65
2022/08/12 15:11:57;;;;;;;7.05;3.42;;;;;;;;;;5052365;28;20033;-64
2022/08/12 15:15:02;;;;;;;11.85;3.97;;;;;;;;;;5051748;28;20045;-65
2022/08/12 15:18:08;;;;;;;5.75;3.05;;;;;;;;;;5051917;28;20055;-65
2022/08/12 15:21:12;;;;;;;10.27;3.83;;;;;;;;;;5051317;28;20041;-65
2022/08/12 15:24:19;;;;;;;5.32;3.30;;;;;;;;;;5051287;28;20048;-65
2022/08/12 15:27:23;;;;;;;6.35;3.90;;;;;;;;;;5051585;28;20041;-65
2022/08/12 15:30:28;;;;;;;8.88;3.65;;;;;;;;;;5051361;28;20045;-65
2022/08/12 15:33:32;;;;;;;7.15;3.50;;;;;;;;;;5051744;28;20037;-65
2022/08/12 15:36:37;;;;;;;7.57;3.35;;;;;;;;;;5051784;28;20037;-65
2022/08/12 15:39:42;;;;;;;12.82;4.28;;;;;;;;;;5051543;28;20049;-64
2022/08/12 15:42:47;;;;;;;7.65;3.88;;;;;;;;;;5051593;28;20048;-65
2022/08/12 15:45:52;;;;;;;7.95;3.75;;;;;;;;;;5051549;28;20041;-64
2022/08/12 15:48:56;;;;;;;7.25;3.35;;;;;;;;;;5051948;28;20033;-65
2022/08/12 15:52:00;;;;;;;9.27;5.30;;;;;;;;;;5051918;28;20100;-64
2022/08/12 15:55:07;;;;;;;21.83;6.30;;;;;;;;;;5051712;28;20485;-64
2022/08/12 15:58:11;;;;;;;12.35;4.25;;;;;;;;;;5050993;28;20060;-64
2022/08/12 16:01:18;;;;;;;8.10;4.28;;;;;;;;;;5050893;28;20283;-64
2022/08/12 16:04:22;;;;;;;10.27;3.50;;;;;;;;;;5051153;28;20033;-64
2022/08/12 16:07:27;;;;;;;12.02;4.35;;;;;;;;;;5050512;28;20586;-64
2022/08/12 16:10:31;;;;;;;12.52;4.13;;;;;;;;;;5050855;28;20040;-64
2022/08/12 16:13:35;;;;;;;9.75;4.53;;;;;;;;;;5051194;28;20392;-65
2022/08/12 16:16:40;;;;;;;8.90;4.68;;;;;;;;;;5050906;28;20045;-65
2022/08/12 16:19:44;;;;;;;9.77;4.30;;;;;;;;;;5051068;28;20045;-65
2022/08/12 16:22:48;;;;;;;9.52;3.80;;;;;;;;;;5051043;28;20362;-65
2022/08/12 16:25:53;;;;;;;13.35;3.50;;;;;;;;;;5050521;28;20037;-66
2022/08/12 16:28:57;;;;;;;9.27;3.08;;;;;;;;;;5051287;28;20039;-64
2022/08/12 16:32:03;;;;;;;4.95;2.70;;;;;;;;;;5050634;28;20037;-66
2022/08/12 16:35:08;;;;;;;8.55;3.45;;;;;;;;;;5050708;28;20143;-66
2022/08/12 16:38:14;;;;;;;8.00;4.03;;;;;;;;;;5050800;28;20040;-66
2022/08/12 16:41:19;;;;;;;8.43;3.60;;;;;;;;;;5050386;28;20504;-66
2022/08/12 16:44:23;;;;;;;8.18;2.83;;;;;;;;;;5050781;28;20421;-66
2022/08/12 16:47:27;;;;;;;7.10;3.47;;;;;;;;;;5049860;28;20045;-66
2022/08/12 16:50:32;;;;;;;12.82;3.25;;;;;;;;;;5050955;28;20040;-65
2022/08/12 16:53:38;;;;;;;9.07;2.88;;;;;;;;;;5050911;28;20401;-65
2022/08/12 16:56:43;;;;;;;9.82;2.75;;;;;;;;;;5050999;28;20037;-65
2022/08/12 16:59:48;;;;;;;10.05;3.40;;;;;;;;;;5050302;28;20040;-65
2022/08/12 17:02:53;;;;;;;4.30;2.70;;;;;;;;;;5049306;28;20198;-64
2022/08/12 17:05:58;;;;;;;5.18;2.60;;;;;;;;;;5050820;28;20374;-66
2022/08/12 17:09:03;;;;;;;5.60;2.85;;;;;;;;;;5050899;28;20049;-65
2022/08/12 17:12:07;;;;;;;6.88;2.97;;;;;;;;;;5050672;28;20033;-65
2022/08/12 17:15:12;;;;;;;5.43;3.53;;;;;;;;;;5050591;28;20036;-65
2022/08/12 17:18:17;;;;;;;5.80;2.83;;;;;;;;;;5050379;28;20053;-65
2022/08/12 17:21:22;;;;;;;8.15;2.72;;;;;;;;;;5050591;28;20037;-65
2022/08/12 17:24:27;;;;;;;4.57;2.97;;;;;;;;;;5049376;28;20037;-64
2022/08/12 17:27:31;;;;;;;9.20;3.63;;;;;;;;;;5050310;28;20481;-64
2022/08/12 17:30:36;;;;;;;8.07;2.80;;;;;;;;;;5050092;28;20037;-65
2022/08/12 17:33:41;;;;;;;4.70;3.13;;;;;;;;;;5050677;28;20033;-64
2022/08/12 17:36:48;;;;;;;6.03;3.30;;;;;;;;;;5051062;28;20037;-65
2022/08/12 17:39:52;;;;;;;8.27;3.35;;;;;;;;;;5054060;28;20037;-65
2022/08/12 17:42:57;;;;;;;9.63;3.40;;;;;;;;;;5054626;28;20354;-65
2022/08/12 17:46:02;;;;;;;7.35;3.55;;;;;;;;;;5052997;28;20033;-65
2022/08/12 17:49:08;;;;;;;6.90;3.50;;;;;;;;;;5054014;28;20370;-65
2022/08/12 17:52:16;;;;;;;9.68;3.67;;;;;;;;;;5053976;28;20033;-65
2022/08/12 17:55:22;;;;;;;5.15;3.50;;;;;;;;;;5053912;28;20033;-64
2022/08/12 17:58:30;;;;;;;7.10;3.70;;;;;;;;;;5053658;28;20048;-65
2022/08/12 18:01:35;;;;;;;7.72;3.80;;;;;;;;;;5053576;28;20033;-65
2022/08/12 18:04:44;;;;;;;5.65;3.15;;;;;;;;;;5054087;28;20044;-68
2022/08/12 18:07:52;;;;;;;5.35;3.38;;;;;;;;;;5053893;28;20373;-65
2022/08/12 18:14:21;;;;;;;6.22;3.50;;;;;;;;;;5053606;28;20041;-73
2022/08/12 18:17:27;;;;;;;8.45;3.13;;;;;;;;;;5040348;28;20041;-73
2022/08/12 18:20:31;;;;;;;8.52;3.45;;;;;;;;;;5052687;28;20176;-73
2022/08/12 18:23:36;;;;;;;8.00;3.33;;;;;;;;;;5052650;28;20037;-74
2022/08/12 18:26:40;;;;;;;7.13;3.63;;;;;;;;;;5053378;28;20045;-74
2022/08/12 18:29:45;;;;;;;5.15;3.67;;;;;;;;;;5053398;28;20041;-73
2022/08/12 18:32:49;;;;;;;8.05;3.75;;;;;;;;;;5053273;28;20346;-73
2022/08/12 18:35:54;;;;;;;7.03;3.83;;;;;;;;;;5052561;28;20041;-74
2022/08/12 18:38:59;;;;;;;3.78;3.03;;;;;;;;;;5052945;28;20045;-73
2022/08/12 18:42:03;;;;;;;8.07;3.42;;;;;;;;;;5052109;28;20045;-73
2022/08/12 18:45:09;;;;;;;6.78;3.17;;;;;;;;;;5053163;28;20409;-74
2022/08/12 18:48:15;;;;;;;6.50;3.38;;;;;;;;;;5052803;28;20045;-74
2022/08/12 18:51:22;;;;;;;7.07;3.80;;;;;;;;;;5052754;28;20037;-73
2022/08/12 18:54:28;;;;;;;5.13;3.25;;;;;;;;;;5052735;28;20033;-74
2022/08/12 18:57:34;;;;;;;5.95;4.18;;;;;;;;;;5052356;28;20053;-74
2022/08/12 19:00:39;;;;;;;9.00;4.93;;;;;;;;;;5052889;28;20366;-74
2022/08/12 19:03:56;;;;;;;7.22;5.82;;;;;;;;;;5052897;28;20041;-74
2022/08/12 19:07:00;;;;;;;6.43;4.43;;;;;;;;;;5051556;28;20045;-74
2022/08/12 19:10:06;;;;;;;4.95;3.45;;;;;;;;;;5053935;28;20037;-74
2022/08/12 19:16:35;;;;;;;5.18;3.53;;;;;;;;;;5052602;28;20284;-74
2022/08/12 19:19:41;;;;;;;4.93;3.00;;;;;;;;;;5052454;28;20559;-74
2022/08/12 19:22:45;;;;;;;3.25;2.90;;;;;;;;;;5052383;28;20276;-74
2022/08/12 19:25:50;;;;;;;5.68;3.45;;;;;;;;;;5051648;28;20040;-74
2022/08/12 19:28:56;;;;;;;3.15;2.85;;;;;;;;;;5052358;28;20044;-74
2022/08/12 19:32:02;;;;;;;5.35;3.67;;;;;;;;;;5052360;28;20041;-74
2022/08/12 19:35:06;;;;;;;5.20;3.53;;;;;;;;;;5051935;28;20041;-73
2022/08/12 19:38:14;;;;;;;5.57;3.92;;;;;;;;;;5052066;28;20496;-73
2022/08/12 19:41:18;;;;;;;5.18;4.18;;;;;;;;;;5051732;28;20045;-73
2022/08/12 19:44:23;;;;;;;6.72;4.05;;;;;;;;;;5052049;28;20289;-74
2022/08/12 19:47:30;;;;;;;7.15;4.03;;;;;;;;;;5052061;28;20040;-73
2022/08/12 19:50:35;;;;;;;7.70;5.28;;;;;;;;;;5051965;28;20033;-73
2022/08/12 19:53:40;;;;;;;6.13;4.45;;;;;;;;;;5050973;28;20041;-74
2022/08/12 19:56:48;;;;;;;8.00;5.32;;;;;;;;;;5051614;28;20037;-74
2022/08/12 19:59:54;;;;;;;9.52;5.85;;;;;;;;;;5051127;28;20033;-73
2022/08/12 20:02:59;;;;;;;7.95;5.15;;;;;;;;;;5051623;28;20028;-73
2022/08/12 20:06:03;;;;;;;8.13;5.20;;;;;;;;;;5050939;28;20485;-73
2022/08/12 20:09:08;;;;;;;9.13;4.85;;;;;;;;;;5051673;28;20041;-73
2022/08/12 20:12:17;;;;;;;5.60;4.60;;;;;;;;;;5051565;28;20037;-73
2022/08/12 20:15:23;;;;;;;8.98;5.30;;;;;;;;;;5051433;28;20045;-73
2022/08/12 20:18:31;;;;;;;7.63;5.43;;;;;;;;;;5051128;28;20041;-73
2022/08/12 20:21:38;;;;;;;10.00;5.70;;;;;;;;;;5051151;28;20025;-72
2022/08/12 20:24:44;;;;;;;11.57;5.22;;;;;;;;;;5051206;28;20052;-73
2022/08/12 20:27:50;;;;;;;7.97;5.55;;;;;;;;;;5051327;28;20053;-73
2022/08/12 20:30:54;;;;;;;8.05;5.50;;;;;;;;;;5050937;28;20067;-73
2022/08/12 20:34:02;;;;;;;12.65;5.00;;;;;;;;;;5051715;28;20041;-74